Time;durP1;ratioP1;P1;durP2;ratioP2;P2;SDS_P1;SDS_P2;PMS_P1;PMS_P2;Temp;Humidity;BMP_temperature;BMP_pressure;BME280_temperature;BME280_humidity;BME280_pressure;Samples;Min_cycle;Max_cycle;Signal;HPM_P1;HPM_P2
2021/12/17 00:01:00;;;;;;;13.72;9.55;;;;;;;2.93;95.78;98588.89;1765306;81;21416;-59
2021/12/17 00:03:44;;;;;;;12.25;8.70;;;;;;;2.93;95.74;98583.59;1765941;81;20928;-57
2021/12/17 00:08:42;;;;;;;11.20;7.92;;;;;;;2.87;95.62;98575.26;1765999;81;20893;-61
2021/12/17 00:11:10;;;;;;;12.35;8.65;;;;;;;2.85;95.67;98577.33;1765949;81;21682;-58
2021/12/17 00:13:37;;;;;;;11.43;8.23;;;;;;;2.86;95.61;98577.09;1765715;81;21423;-58
2021/12/17 00:16:15;;;;;;;12.23;8.20;;;;;;;2.89;95.63;98569.22;1765761;81;21403;-59
2021/12/17 00:18:50;;;;;;;12.23;8.50;;;;;;;2.89;95.53;98575.33;1764643;81;20929;-58
2021/12/17 00:40:24;;;;;;;12.07;6.93;;;;;;;2.73;94.70;98576.76;1763215;81;20909;-60
2021/12/17 00:48:25;;;;;;;10.38;6.60;;;;;;;2.69;94.81;98567.67;1765957;81;20980;-58
2021/12/17 00:53:26;;;;;;;8.88;6.08;;;;;;;2.71;94.82;98565.60;1765514;81;20870;-57
2021/12/17 00:55:52;;;;;;;10.40;5.75;;;;;;;2.72;94.81;98574.34;1765506;81;20845;-61
2021/12/17 00:58:19;;;;;;;8.73;5.85;;;;;;;2.73;94.84;98569.36;1765544;81;20917;-59
2021/12/17 01:00:46;;;;;;;10.82;5.97;;;;;;;2.73;94.77;98562.21;1765739;81;20933;-59
2021/12/17 01:03:13;;;;;;;10.32;5.55;;;;;;;2.74;94.67;98570.45;1765794;81;21112;-58
2021/12/17 01:05:39;;;;;;;9.40;5.25;;;;;;;2.74;94.68;98566.48;1765837;81;21453;-57
2021/12/17 01:08:07;;;;;;;8.80;5.28;;;;;;;2.74;94.66;98561.19;1765666;81;20924;-62
2021/12/17 01:10:39;;;;;;;12.80;5.85;;;;;;;2.72;94.68;98556.65;1765944;81;20878;-59
2021/12/17 01:13:13;;;;;;;10.13;6.10;;;;;;;2.72;94.66;98554.00;1732853;81;20854;-59
2021/12/17 01:15:43;;;;;;;9.03;5.87;;;;;;;2.70;94.64;98560.03;1765640;81;21102;-60
2021/12/17 01:18:24;;;;;;;10.95;5.75;;;;;;;2.69;94.72;98562.38;1763973;81;20917;-58
2021/12/17 01:24:03;;;;;;;11.20;5.55;;;;;;;2.69;94.82;98558.92;1764791;81;20925;-58
2021/12/17 01:42:42;;;;;;;7.50;5.45;;;;;;;2.59;95.03;98558.14;1711289;84;21120;-59
2021/12/17 01:45:09;;;;;;;11.33;5.70;;;;;;;2.59;95.01;98575.33;1711479;83;20976;-60
2021/12/17 01:47:35;;;;;;;14.05;7.80;;;;;;;2.57;94.99;98564.17;1711348;84;20968;-58
2021/12/17 01:56:04;;;;;;;10.75;5.65;;;;;;;2.61;94.90;98562.72;1711645;83;21097;-62
2021/12/17 02:01:06;;;;;;;9.98;6.35;;;;;;;2.58;94.86;98557.87;1711302;84;21384;-58
2021/12/17 02:03:33;;;;;;;11.53;6.10;;;;;;;2.59;94.85;98556.82;1711353;84;20897;-60
2021/12/17 02:06:02;;;;;;;10.80;6.10;;;;;;;2.61;94.80;98557.43;1711466;84;20941;-58
2021/12/17 02:08:30;;;;;;;11.80;6.17;;;;;;;2.64;94.70;98552.98;1711255;84;20909;-57
2021/12/17 02:30:22;;;;;;;11.12;5.50;;;;;;;2.59;93.29;98533.02;1711434;84;20968;-60
2021/12/17 02:32:34;;;;;;;10.48;5.35;;;;;;;2.60;93.28;98529.35;1707040;84;20932;-60
2021/12/17 02:35:21;;;;;;;10.35;5.10;;;;;;;2.59;93.15;98525.08;1682861;84;21121;-58
2021/12/17 02:37:33;;;;;;;14.58;5.12;;;;;;;2.54;93.25;98526.27;1707777;84;20927;-60
2021/12/17 02:42:22;;;;;;;12.82;5.65;;;;;;;2.54;93.36;98527.59;1699497;84;20976;-59
2021/12/17 02:45:31;;;;;;;13.30;5.55;;;;;;;2.55;93.39;98517.32;1707398;84;21035;-61
2021/12/17 02:48:12;;;;;;;9.78;4.97;;;;;;;2.53;93.42;98519.39;1711359;84;21081;-59
2021/12/17 02:50:43;;;;;;;9.70;4.58;;;;;;;2.52;93.47;98517.77;1711287;84;20913;-60
2021/12/17 02:53:11;;;;;;;12.75;5.40;;;;;;;2.52;93.53;98519.09;1711508;83;20940;-57
2021/12/17 02:55:41;;;;;;;12.68;5.33;;;;;;;2.55;93.53;98513.36;1711251;84;21454;-57
2021/12/17 02:58:08;;;;;;;12.95;5.85;;;;;;;2.54;93.54;98516.23;1711491;83;20944;-58
2021/12/17 03:00:37;;;;;;;13.48;6.40;;;;;;;2.53;93.52;98512.78;1711278;84;21119;-61
2021/12/17 03:03:05;;;;;;;15.23;6.05;;;;;;;2.52;93.52;98512.47;1711261;84;20920;-58
2021/12/17 03:05:32;;;;;;;13.45;5.50;;;;;;;2.49;93.49;98506.34;1711310;84;20897;-58
2021/12/17 03:08:00;;;;;;;13.00;5.42;;;;;;;2.47;93.51;98511.02;1711247;84;20893;-60
2021/12/17 03:10:27;;;;;;;10.28;4.95;;;;;;;2.45;93.56;98506.48;1711237;84;21004;-60
2021/12/17 03:13:00;;;;;;;14.98;5.42;;;;;;;2.44;93.59;98498.27;1711472;84;21752;-59
2021/12/17 03:15:41;;;;;;;14.47;5.47;;;;;;;2.44;93.54;98503.56;1710930;84;20893;-58
2021/12/17 03:26:19;;;;;;;18.52;6.55;;;;;;;2.39;93.34;98505.25;1716038;82;21012;-57
2021/12/17 03:28:53;;;;;;;13.43;5.92;;;;;;;2.36;93.26;98500.41;1716670;83;21482;-60
2021/12/17 03:31:20;;;;;;;9.95;4.70;;;;;;;2.35;93.26;98499.63;1716922;83;20940;-59
2021/12/17 03:33:49;;;;;;;16.12;4.60;;;;;;;2.36;93.15;98488.52;1716541;83;21538;-56
2021/12/17 03:36:18;;;;;;;11.55;4.62;;;;;;;2.34;93.10;98491.91;1716927;83;20995;-56
2021/12/17 03:38:48;;;;;;;12.43;4.85;;;;;;;2.34;93.11;98495.36;1716663;83;21720;-61
2021/12/17 03:41:21;;;;;;;10.65;5.22;;;;;;;2.32;93.14;98488.17;1716722;83;20916;-57
2021/12/17 03:43:57;;;;;;;12.45;4.80;;;;;;;2.31;93.00;98493.16;1716428;83;20906;-58
2021/12/17 03:46:26;;;;;;;10.82;4.03;;;;;;;2.29;92.82;98495.22;1715530;83;20936;-60
2021/12/17 03:48:54;;;;;;;11.65;3.87;;;;;;;2.27;92.50;98486.72;1716675;83;20926;-58
2021/12/17 03:51:21;;;;;;;14.07;5.00;;;;;;;2.27;92.29;98483.26;1716531;83;21053;-60
2021/12/17 03:53:54;;;;;;;13.80;5.45;;;;;;;2.27;92.33;98493.33;1716752;83;21036;-61
2021/12/17 03:56:21;;;;;;;13.10;5.95;;;;;;;2.26;92.33;98487.73;1716573;83;20901;-61
2021/12/17 03:58:50;;;;;;;13.72;5.78;;;;;;;2.27;92.34;98484.08;1716607;83;20988;-61
2021/12/17 04:01:17;;;;;;;19.00;5.62;;;;;;;2.28;92.43;98486.20;1689933;83;21099;-59
2021/12/17 04:03:43;;;;;;;11.05;4.42;;;;;;;2.27;92.46;98478.78;1716910;83;21053;-58
2021/12/17 04:06:13;;;;;;;13.58;4.72;;;;;;;2.26;92.53;98477.70;1715140;83;20977;-61
2021/12/17 04:08:42;;;;;;;10.08;4.10;;;;;;;2.28;92.53;98471.16;1699503;83;20948;-58
2021/12/17 04:11:26;;;;;;;13.53;4.85;;;;;;;2.28;92.49;98461.91;1715655;83;21003;-56
2021/12/17 04:13:56;;;;;;;10.60;4.08;;;;;;;2.28;92.44;98467.20;1716645;83;20937;-60
2021/12/17 04:16:27;;;;;;;13.35;5.40;;;;;;;2.28;92.41;98464.55;1716631;83;21122;-57
2021/12/17 04:18:53;;;;;;;9.65;4.37;;;;;;;2.27;92.29;98464.25;1716608;83;20929;-60
2021/12/17 04:21:21;;;;;;;12.95;4.35;;;;;;;2.30;92.21;98461.16;1716506;83;20937;-60
2021/12/17 04:23:50;;;;;;;11.63;3.95;;;;;;;2.29;92.04;98457.41;1716885;83;21482;-59
2021/12/17 04:26:17;;;;;;;13.78;3.70;;;;;;;2.25;91.97;98457.58;1712019;82;20956;-58
2021/12/17 04:28:48;;;;;;;10.68;3.87;;;;;;;2.20;92.01;98446.36;1711116;84;21853;-58
2021/12/17 04:31:15;;;;;;;12.37;4.25;;;;;;;2.18;92.12;98443.14;1711470;84;20893;-58
2021/12/17 04:33:43;;;;;;;11.97;4.30;;;;;;;2.16;92.09;98439.92;1711188;83;20869;-61
2021/12/17 04:36:15;;;;;;;10.15;3.52;;;;;;;2.15;92.12;98442.77;1711568;83;20937;-60
2021/12/17 04:38:41;;;;;;;13.15;4.17;;;;;;;2.13;92.18;98439.04;1711716;84;20894;-60
2021/12/17 04:44:09;;;;;;;12.30;4.70;;;;;;;2.12;92.15;98441.92;1711267;84;20982;-60
2021/12/17 04:46:43;;;;;;;14.87;4.35;;;;;;;2.13;92.27;98436.91;1710294;84;21001;-60
2021/12/17 04:57:33;;;;;;;;;;;;;;;2.13;92.00;98421.05;1713820;84;20925;-60
2021/12/17 05:00:08;;;;;;;15.90;4.03;;;;;;;2.09;91.89;98429.96;1711425;83;20094;-59
2021/12/17 05:02:41;;;;;;;9.45;3.33;;;;;;;2.08;91.80;98438.91;1711756;83;21479;-58
2021/12/17 05:05:09;;;;;;;10.55;3.40;;;;;;;2.12;91.61;98433.99;1711553;83;20984;-62
2021/12/17 05:07:45;;;;;;;11.65;3.85;;;;;;;2.08;91.43;98435.75;1711647;83;21081;-57
2021/12/17 05:10:43;;;;;;;12.07;3.55;;;;;;;2.07;91.44;98436.77;1711200;84;20881;-60
2021/12/17 05:18:27;;;;;;;12.05;4.05;;;;;;;2.12;91.51;98446.66;1711571;84;20937;-58
2021/12/17 05:21:04;;;;;;;12.43;4.55;;;;;;;2.14;91.36;98441.98;1709643;84;21027;-60
2021/12/17 05:23:41;;;;;;;11.33;3.58;;;;;;;2.13;91.08;98440.36;1710263;84;21420;-57
2021/12/17 05:26:12;;;;;;;9.48;4.05;;;;;;;2.10;91.00;98443.45;1714573;83;21597;-63
2021/12/17 05:28:42;;;;;;;10.53;3.50;;;;;;;2.07;91.15;98442.05;1716442;83;20952;-56
2021/12/17 05:31:09;;;;;;;10.35;3.70;;;;;;;2.07;91.18;98442.05;1716746;83;20917;-60
2021/12/17 05:33:38;;;;;;;13.90;3.92;;;;;;;2.07;91.21;98438.63;1716143;83;21078;-58
2021/12/17 05:36:06;;;;;;;9.58;3.77;;;;;;;2.04;91.24;98431.95;1716566;83;20940;-58
2021/12/17 05:38:33;;;;;;;14.13;3.72;;;;;;;2.03;91.24;98435.62;1716723;83;21451;-57
2021/12/17 05:41:00;;;;;;;13.68;4.17;;;;;;;2.01;91.30;98439.52;1716786;83;21032;-60
2021/12/17 05:43:29;;;;;;;13.65;3.72;;;;;;;2.01;91.42;98447.44;1716387;83;20956;-58
2021/12/17 05:48:26;;;;;;;11.70;3.83;;;;;;;2.00;91.46;98443.98;1716577;83;20956;-58
2021/12/17 05:50:57;;;;;;;13.25;4.53;;;;;;;2.01;91.50;98442.16;1716731;83;20870;-59
2021/12/17 05:53:24;;;;;;;14.25;4.20;;;;;;;2.01;91.50;98447.44;1716460;83;20893;-58
2021/12/17 05:55:52;;;;;;;11.80;4.33;;;;;;;2.02;91.53;98445.10;1716837;83;20932;-57
2021/12/17 05:58:20;;;;;;;14.40;4.30;;;;;;;1.98;91.63;98444.73;1716605;83;21142;-60
2021/12/17 06:00:47;;;;;;;11.30;3.87;;;;;;;1.98;91.76;98437.31;1716528;83;20980;-59
2021/12/17 06:03:19;;;;;;;12.43;3.72;;;;;;;1.99;91.84;98447.67;1706223;83;20949;-63
2021/12/17 06:05:49;;;;;;;13.10;4.03;;;;;;;1.99;91.88;98442.90;1715454;83;21510;-59
2021/12/17 06:08:16;;;;;;;13.70;4.37;;;;;;;1.98;91.91;98435.48;1716625;83;21072;-63
2021/12/17 06:10:44;;;;;;;12.88;3.87;;;;;;;1.98;91.97;98442.59;1716716;83;21111;-61
2021/12/17 06:13:11;;;;;;;12.00;4.05;;;;;;;1.97;92.02;98444.97;1716403;83;20989;-58
2021/12/17 06:15:40;;;;;;;15.35;4.47;;;;;;;1.99;92.07;98453.47;1716008;83;20999;-57
2021/12/17 06:18:08;;;;;;;14.85;4.40;;;;;;;2.03;92.15;98442.73;1716232;83;20972;-62
2021/12/17 06:20:34;;;;;;;10.93;4.17;;;;;;;2.05;92.08;98440.16;1716669;83;21420;-59
2021/12/17 06:23:01;;;;;;;13.95;3.77;;;;;;;2.02;92.05;98438.50;1716593;83;21068;-60
2021/12/17 06:25:28;;;;;;;12.37;4.20;;;;;;;2.00;92.13;98443.98;1710539;82;20991;-61
2021/12/17 06:27:55;;;;;;;9.35;3.75;;;;;;;2.02;92.20;98439.81;1701700;83;20928;-63
2021/12/17 06:30:22;;;;;;;13.43;3.75;;;;;;;2.05;92.21;98448.59;1710024;83;20945;-62
2021/12/17 06:32:49;;;;;;;13.25;5.50;;;;;;;2.05;92.19;98457.84;1704911;83;21546;-61
2021/12/17 06:35:16;;;;;;;12.00;4.53;;;;;;;2.05;92.18;98444.13;1702669;84;21260;-61
2021/12/17 06:37:43;;;;;;;15.03;5.22;;;;;;;2.04;92.20;98453.09;1703181;84;20929;-64
2021/12/17 06:40:12;;;;;;;15.88;4.50;;;;;;;2.04;92.26;98452.28;1703350;84;21100;-59
2021/12/17 06:42:40;;;;;;;14.78;4.30;;;;;;;2.06;92.26;98439.65;1692713;84;20905;-64
2021/12/17 06:45:18;;;;;;;16.17;5.25;;;;;;;2.08;92.24;98448.16;1706988;83;20988;-60
2021/12/17 06:47:38;;;;;;;15.63;4.80;;;;;;;2.08;92.22;98448.97;1714322;83;21094;-62
2021/12/17 06:58:51;;;;;;;11.73;4.47;;;;;;;2.09;92.33;98448.45;1768409;81;20842;-61
2021/12/17 07:05:57;;;;;;;10.00;4.37;;;;;;;2.07;92.24;98442.05;1764116;81;21126;-59
2021/12/17 07:10:04;;;;;;;15.70;4.90;;;;;;;2.03;92.41;98450.66;1766502;81;21510;-62
2021/12/17 07:18:01;;;;;;;10.82;4.42;;;;;;;2.06;92.38;98455.50;1768225;80;20874;-59
2021/12/17 07:23:09;;;;;;;14.00;4.05;;;;;;;2.06;92.51;98452.86;1768273;81;20976;-57
2021/12/17 07:34:03;;;;;;;10.60;4.60;;;;;;;2.12;92.45;98444.56;1710254;83;24832;-62
2021/12/17 07:39:15;;;;;;;15.03;5.58;;;;;;;2.06;92.61;98439.65;1674300;83;21117;-57
2021/12/17 07:42:15;;;;;;;15.32;5.67;;;;;;;2.05;92.76;98438.84;1763831;80;20980;-58
2021/12/17 07:44:57;;;;;;;15.30;4.58;;;;;;;2.06;92.76;98439.65;1729912;83;21089;-57
2021/12/17 07:47:27;;;;;;;17.73;5.28;;;;;;;2.06;92.73;98446.25;1750842;82;21030;-60
2021/12/17 07:50:04;;;;;;;17.45;4.30;;;;;;;2.06;92.80;98444.94;1721824;82;20991;-58
2021/12/17 07:52:31;;;;;;;13.30;4.90;;;;;;;2.08;92.66;98438.91;1719296;83;21208;-59
2021/12/17 07:54:59;;;;;;;11.93;3.87;;;;;;;2.07;92.71;98446.56;1718769;83;21943;-60
2021/12/17 07:57:26;;;;;;;13.28;3.90;;;;;;;2.07;92.65;98442.05;1719869;83;21577;-58
2021/12/17 07:59:53;;;;;;;13.13;4.17;;;;;;;2.03;92.66;98444.87;1720281;83;20856;-62
2021/12/17 08:02:21;;;;;;;12.28;4.20;;;;;;;1.95;93.00;98445.20;1719844;83;21024;-57
2021/12/17 08:04:49;;;;;;;15.10;4.45;;;;;;;1.90;93.27;98443.73;1718339;83;21517;-62
2021/12/17 08:07:18;;;;;;;11.28;4.12;;;;;;;1.86;93.46;98437.81;1726859;82;21487;-58
2021/12/17 08:09:45;;;;;;;13.08;4.45;;;;;;;1.86;93.67;98433.84;1723661;82;20951;-58
2021/12/17 08:12:12;;;;;;;15.58;5.25;;;;;;;1.90;93.84;98429.72;1727923;82;21435;-57
2021/12/17 08:14:45;;;;;;;14.90;4.97;;;;;;;1.90;93.89;98432.36;1741223;81;20944;-62
2021/12/17 08:32:44;;;;;;;10.70;4.28;;;;;;;1.92;94.32;98429.78;1738997;82;21069;-60
2021/12/17 08:35:12;;;;;;;14.23;4.40;;;;;;;1.93;94.29;98424.78;1720693;83;21114;-59
2021/12/17 08:37:39;;;;;;;12.35;4.25;;;;;;;1.95;94.20;98417.97;1720516;83;21129;-57
2021/12/17 08:40:07;;;;;;;13.20;4.15;;;;;;;1.91;94.22;98418.91;1728114;82;20992;-61
2021/12/17 08:42:36;;;;;;;13.32;4.28;;;;;;;1.90;94.30;98412.55;1748388;82;21122;-64
2021/12/17 08:45:08;;;;;;;11.25;3.98;;;;;;;1.90;94.43;98411.23;1729224;82;20983;-63
2021/12/17 08:47:49;;;;;;;15.32;4.80;;;;;;;1.91;94.43;98414.14;1729099;82;20925;-59
2021/12/17 08:50:28;;;;;;;10.70;4.35;;;;;;;1.90;94.38;98405.94;1709028;83;21137;-60
2021/12/17 08:52:56;;;;;;;15.10;4.12;;;;;;;1.91;94.40;98404.89;1709094;83;21007;-62
2021/12/17 08:55:22;;;;;;;14.10;4.22;;;;;;;1.91;94.48;98397.78;1705756;83;21094;-62
2021/12/17 08:57:49;;;;;;;18.57;4.55;;;;;;;1.94;94.45;98399.98;1708487;83;21766;-61
2021/12/17 09:00:16;;;;;;;14.65;4.97;;;;;;;1.96;94.27;98391.31;1709805;83;20845;-61
2021/12/17 09:02:48;;;;;;;12.00;4.10;;;;;;;1.99;94.34;98391.38;1710009;83;21088;-63
2021/12/17 09:05:37;;;;;;;14.63;4.60;;;;;;;2.00;94.20;98397.75;1710354;83;21444;-63
2021/12/17 09:10:45;;;;;;;13.58;5.70;;;;;;;1.96;94.08;98391.82;1709085;83;20908;-59
2021/12/17 09:13:12;;;;;;;11.78;4.72;;;;;;;1.95;94.10;98384.95;1711162;83;20928;-60
2021/12/17 09:15:43;;;;;;;15.35;5.37;;;;;;;2.00;94.10;98391.68;1719450;83;20952;-62
2021/12/17 09:18:15;;;;;;;16.93;6.05;;;;;;;2.01;94.13;98380.06;1707605;83;26521;-58
2021/12/17 09:20:45;;;;;;;13.88;4.60;;;;;;;2.06;94.08;98389.45;1709202;83;21032;-62
2021/12/17 09:23:12;;;;;;;11.90;4.47;;;;;;;2.07;93.76;98378.64;1707079;83;21714;-57
2021/12/17 09:25:40;;;;;;;14.13;4.62;;;;;;;2.09;93.74;98386.36;1710712;83;21091;-61
2021/12/17 09:28:12;;;;;;;13.18;4.67;;;;;;;2.10;93.56;98378.70;1711841;82;21411;-62
2021/12/17 09:30:58;;;;;;;11.75;5.22;;;;;;;2.12;93.47;98376.64;1708057;82;21034;-61
2021/12/17 09:33:25;;;;;;;12.18;4.12;;;;;;;2.14;93.27;98375.92;1714177;83;21494;-58
2021/12/17 09:35:52;;;;;;;11.60;4.20;;;;;;;2.14;93.19;98367.99;1709234;83;21119;-60
2021/12/17 09:38:19;;;;;;;14.33;4.22;;;;;;;2.16;93.19;98369.89;1711059;83;21495;-59
2021/12/17 09:40:46;;;;;;;10.88;4.12;;;;;;;2.18;93.11;98375.75;1712308;83;20987;-63
2021/12/17 09:43:14;;;;;;;16.85;4.60;;;;;;;2.21;92.84;98368.69;1706990;82;21099;-62
2021/12/17 09:45:42;;;;;;;14.93;3.83;;;;;;;2.21;92.76;98376.63;1680944;83;21154;-58
2021/12/17 09:48:10;;;;;;;12.90;4.58;;;;;;;2.23;92.50;98369.27;1713518;83;21071;-56
2021/12/17 09:50:40;;;;;;;12.75;4.70;;;;;;;2.20;92.48;98365.75;1691583;83;20953;-63
2021/12/17 09:53:06;;;;;;;14.95;5.03;;;;;;;2.19;92.44;98365.45;1711773;83;21570;-60
2021/12/17 09:55:33;;;;;;;10.25;4.22;;;;;;;2.18;92.52;98363.85;1640773;86;21109;-64
2021/12/17 09:58:00;;;;;;;15.10;5.40;;;;;;;2.20;92.47;98364.42;1708134;83;20991;-57
2021/12/17 10:00:27;;;;;;;14.95;4.40;;;;;;;2.24;92.43;98362.15;1710472;83;21124;-60
2021/12/17 10:02:54;;;;;;;14.18;4.78;;;;;;;2.23;92.24;98363.98;1709704;83;21511;-59
2021/12/17 10:05:30;;;;;;;15.48;5.15;;;;;;;2.22;92.18;98360.22;1710608;83;20948;-63
2021/12/17 10:08:06;;;;;;;12.90;4.45;;;;;;;2.20;92.24;98361.78;1712199;83;21448;-61
2021/12/17 10:10:40;;;;;;;9.83;4.42;;;;;;;2.19;92.26;98360.16;1705706;83;21460;-63
2021/12/17 10:13:16;;;;;;;16.67;5.08;;;;;;;2.19;92.19;98362.80;1708340;83;21141;-58
2021/12/17 10:15:47;;;;;;;11.75;4.80;;;;;;;2.20;92.19;98361.78;1705034;83;20908;-61
2021/12/17 10:18:14;;;;;;;15.10;5.45;;;;;;;2.20;92.13;98357.82;1710532;83;21463;-64
2021/12/17 10:20:54;;;;;;;12.30;5.05;;;;;;;2.19;92.16;98356.20;1711613;82;21467;-64
2021/12/17 10:23:23;;;;;;;11.78;5.22;;;;;;;2.20;92.19;98358.33;1682317;84;20969;-63
2021/12/17 10:25:50;;;;;;;18.27;4.83;;;;;;;2.21;92.17;98355.98;1708999;83;21848;-62
2021/12/17 10:28:22;;;;;;;14.38;5.28;;;;;;;2.22;92.08;98349.14;1713150;83;21249;-59
2021/12/17 10:30:52;;;;;;;11.80;5.42;;;;;;;2.21;91.90;98346.73;1711973;83;21494;-59
2021/12/17 10:33:23;;;;;;;15.30;5.87;;;;;;;2.19;91.96;98339.02;1709307;83;20996;-60
2021/12/17 10:35:51;;;;;;;16.15;6.37;;;;;;;2.18;92.02;98341.39;1708399;83;21566;-60
2021/12/17 10:38:25;;;;;;;17.12;4.62;;;;;;;2.18;92.06;98342.71;1709720;83;21757;-61
2021/12/17 10:41:03;;;;;;;9.58;3.98;;;;;;;2.20;92.08;98346.44;1710240;83;21071;-57
2021/12/17 10:43:38;;;;;;;14.70;4.35;;;;;;;2.19;92.03;98332.41;1695450;83;21026;-60
2021/12/17 10:54:17;;;;;;;12.15;4.30;;;;;;;2.09;92.30;98326.91;1707688;83;20999;-59
2021/12/17 10:56:50;;;;;;;8.10;3.52;;;;;;;2.06;92.49;98331.31;1711155;83;21158;-55
2021/12/17 10:59:26;;;;;;;12.82;3.98;;;;;;;2.06;92.58;98323.39;1707283;83;21043;-66
2021/12/17 11:02:02;;;;;;;12.70;4.22;;;;;;;2.07;92.65;98328.44;1706532;83;21403;-61
2021/12/17 11:04:30;;;;;;;13.90;4.40;;;;;;;2.07;92.64;98330.30;1665654;85;21135;-65
2021/12/17 11:07:06;;;;;;;12.82;4.42;;;;;;;2.08;92.71;98333.20;1709410;83;20983;-61
2021/12/17 11:09:44;;;;;;;11.65;4.28;;;;;;;2.12;92.74;98326.97;1711072;83;25885;-64
2021/12/17 11:12:45;;;;;;;8.95;3.92;;;;;;;2.15;92.62;98320.69;1710008;83;21040;-63
2021/12/17 11:15:23;;;;;;;14.83;4.72;;;;;;;2.15;92.46;98322.02;1710493;83;21040;-61
2021/12/17 11:17:56;;;;;;;15.32;4.78;;;;;;;2.18;92.53;98317.61;1706110;83;21141;-65
2021/12/17 11:20:32;;;;;;;11.53;4.37;;;;;;;2.18;92.52;98319.44;1708868;83;20928;-64
2021/12/17 11:23:04;;;;;;;12.03;4.17;;;;;;;2.16;92.60;98315.71;1705884;83;21000;-61
2021/12/17 11:25:29;;;;;;;13.72;4.55;;;;;;;2.14;92.69;98324.39;1708617;83;20949;-63
2021/12/17 11:27:56;;;;;;;10.95;4.15;;;;;;;2.13;92.81;98317.98;1686434;84;21020;-64
2021/12/17 11:30:26;;;;;;;9.18;3.72;;;;;;;2.15;92.93;98320.69;1711938;83;21398;-63
2021/12/17 11:32:53;;;;;;;14.93;3.80;;;;;;;2.18;92.90;98312.83;1715867;83;21043;-59
2021/12/17 11:35:24;;;;;;;13.83;5.10;;;;;;;2.20;92.86;98308.92;1708600;83;20980;-63
2021/12/17 11:37:52;;;;;;;13.30;3.95;;;;;;;2.20;92.85;98311.57;1709231;83;20948;-59
2021/12/17 11:40:45;;;;;;;12.82;4.08;;;;;;;2.20;92.87;98315.53;1708319;83;20957;-60
2021/12/17 11:43:52;;;;;;;10.28;4.33;;;;;;;2.21;92.90;98314.52;1712891;83;21154;-63
2021/12/17 11:46:27;;;;;;;11.25;4.80;;;;;;;2.20;93.02;98318.17;1708463;83;20952;-58
2021/12/17 11:49:00;;;;;;;14.23;5.10;;;;;;;2.17;93.16;98314.66;1710897;82;20983;-59
2021/12/17 11:51:30;;;;;;;23.52;8.30;;;;;;;2.20;93.21;98316.04;1714437;83;21079;-59
2021/12/17 11:54:25;;;;;;;19.65;7.85;;;;;;;2.19;93.21;98313.91;1709452;83;21064;-61
2021/12/17 11:56:52;;;;;;;17.32;8.00;;;;;;;2.18;93.25;98315.47;1710447;83;20952;-62
2021/12/17 11:59:32;;;;;;;15.80;7.42;;;;;;;2.14;93.34;98311.69;1715949;82;20981;-58
2021/12/17 12:02:22;;;;;;;16.15;7.10;;;;;;;2.16;93.41;98301.69;1711816;83;21523;-62
2021/12/17 12:04:54;;;;;;;14.05;5.65;;;;;;;2.20;93.35;98299.67;1710695;82;21000;-61
2021/12/17 12:07:28;;;;;;;11.70;4.92;;;;;;;2.23;93.21;98308.98;1713353;83;21040;-58
2021/12/17 12:10:09;;;;;;;15.48;5.05;;;;;;;2.21;93.15;98309.23;1710268;83;21212;-59
2021/12/17 12:12:51;;;;;;;12.73;4.58;;;;;;;2.22;93.21;98309.50;1708428;83;21059;-62
2021/12/17 12:15:27;;;;;;;9.35;4.05;;;;;;;2.22;93.21;98306.85;1705007;82;20998;-58
2021/12/17 12:18:17;;;;;;;8.88;3.70;;;;;;;2.24;93.27;98305.33;1711280;83;21038;-61
2021/12/17 12:20:51;;;;;;;13.85;4.25;;;;;;;2.26;93.09;98302.70;1710616;83;21111;-57
2021/12/17 12:23:29;;;;;;;9.53;3.90;;;;;;;2.27;92.94;98300.37;1707173;83;21846;-57
2021/12/17 12:26:14;;;;;;;13.85;4.10;;;;;;;2.28;93.09;98305.95;1708735;82;20845;-57
2021/12/17 12:28:52;;;;;;;11.48;4.47;;;;;;;2.32;92.88;98295.71;1710745;83;20988;-58
2021/12/17 12:31:32;;;;;;;15.23;4.62;;;;;;;2.35;92.87;98303.19;1712827;83;20960;-61
2021/12/17 12:34:13;;;;;;;12.78;4.05;;;;;;;2.37;92.67;98296.64;1711700;83;21020;-59
2021/12/17 12:37:09;;;;;;;9.13;3.90;;;;;;;2.39;92.54;98301.69;1712880;83;21202;-58
2021/12/17 12:39:54;;;;;;;11.90;4.75;;;;;;;2.37;92.37;98301.93;1708239;83;21381;-58
2021/12/17 12:42:23;;;;;;;12.10;4.50;;;;;;;2.32;92.28;98305.78;1708886;83;20984;-59
2021/12/17 12:44:55;;;;;;;9.53;4.10;;;;;;;2.26;92.27;98304.03;1714108;82;20980;-59
2021/12/17 12:47:39;;;;;;;10.75;4.50;;;;;;;2.24;92.26;98303.46;1712644;83;20920;-63
2021/12/17 12:50:23;;;;;;;12.00;4.90;;;;;;;2.22;92.22;98313.46;1718556;82;21195;-65
2021/12/17 12:52:53;;;;;;;14.25;4.80;;;;;;;2.24;92.15;98310.61;1680677;85;20964;-59
2021/12/17 12:55:36;;;;;;;16.48;4.92;;;;;;;2.23;92.04;98303.70;1651405;86;20989;-61
2021/12/17 12:58:13;;;;;;;13.25;3.70;;;;;;;2.21;92.04;98297.84;1649521;86;20918;-61
2021/12/17 13:00:57;;;;;;;12.07;4.75;;;;;;;2.20;92.06;98302.31;1661430;86;20963;-58
2021/12/17 13:03:27;;;;;;;8.83;4.03;;;;;;;2.20;92.07;98303.64;1666412;85;21105;-62
2021/12/17 13:05:56;;;;;;;15.78;4.45;;;;;;;2.23;92.03;98304.52;1644223;85;20960;-61
2021/12/17 13:08:23;;;;;;;14.05;4.70;;;;;;;2.24;91.92;98305.33;1646197;86;20994;-66
2021/12/17 13:10:58;;;;;;;13.40;4.42;;;;;;;2.25;91.95;98302.44;1665044;85;21550;-63
2021/12/17 13:13:34;;;;;;;13.60;4.20;;;;;;;2.26;91.87;98303.25;1672805;85;21367;-62
2021/12/17 13:16:08;;;;;;;8.38;4.22;;;;;;;2.25;91.84;98302.95;1667215;85;21154;-64
2021/12/17 13:24:16;;;;;;;12.93;4.25;;;;;;;2.20;91.66;98310.25;1660537;85;21031;-60
2021/12/17 13:26:54;;;;;;;10.30;4.00;;;;;;;2.20;91.65;98304.96;1665876;85;21045;-63
2021/12/17 13:29:33;;;;;;;11.30;5.97;;;;;;;2.20;91.70;98302.83;1668814;85;21757;-60
2021/12/17 13:32:12;;;;;;;12.78;5.47;;;;;;;2.20;91.56;98300.19;1664937;85;21020;-60
2021/12/17 13:34:47;;;;;;;6.87;3.22;;;;;;;2.17;91.40;98296.16;1660560;85;20964;-64
2021/12/17 13:37:20;;;;;;;;;;;;;;;2.15;91.43;98302.70;1669523;85;21452;-61
2021/12/17 13:39:54;;;;;;;12.37;4.53;;;;;;;2.11;91.51;98297.09;1664155;85;20144;-60
2021/12/17 13:42:33;;;;;;;9.10;3.45;;;;;;;2.07;91.71;98300.69;1662727;85;21192;-58
2021/12/17 13:45:08;;;;;;;9.15;3.47;;;;;;;2.05;91.83;98300.12;1659797;85;21031;-64
2021/12/17 13:47:50;;;;;;;8.43;3.50;;;;;;;2.06;91.94;98308.85;1660165;85;20928;-64
2021/12/17 13:50:30;;;;;;;8.98;4.00;;;;;;;2.05;91.99;98303.27;1661810;85;21061;-60
2021/12/17 13:53:02;;;;;;;12.03;3.52;;;;;;;2.02;92.08;98303.23;1666210;85;21102;-65
2021/12/17 13:55:35;;;;;;;7.75;4.25;;;;;;;2.02;92.15;98305.06;1660927;85;21148;-65
2021/12/17 13:58:08;;;;;;;8.58;3.70;;;;;;;2.00;92.22;98301.31;1663219;85;20988;-60
2021/12/17 14:00:46;;;;;;;10.45;3.70;;;;;;;2.02;92.25;98302.42;1726483;82;20955;-62
2021/12/17 14:03:15;;;;;;;7.92;2.90;;;;;;;2.05;92.31;98303.27;1730615;82;20947;-63
2021/12/17 14:05:51;;;;;;;9.23;3.67;;;;;;;2.08;92.26;98302.31;1727364;82;20960;-59
2021/12/17 14:08:20;;;;;;;9.23;3.85;;;;;;;2.08;92.25;98306.27;1725403;82;21922;-63
2021/12/17 14:10:48;;;;;;;9.58;3.33;;;;;;;2.12;92.29;98301.32;1725178;82;20888;-59
2021/12/17 14:16:46;;;;;;;9.40;4.28;;;;;;;2.13;92.08;98305.59;1724384;82;21364;-61
2021/12/17 14:19:12;;;;;;;7.55;4.20;;;;;;;2.12;91.94;98306.61;1677060;83;21451;-59
2021/12/17 14:21:40;;;;;;;9.08;3.85;;;;;;;2.13;91.89;98309.55;1711286;83;21143;-60
2021/12/17 14:24:07;;;;;;;9.88;3.83;;;;;;;2.11;91.66;98314.27;1669506;83;20885;-60
2021/12/17 14:26:35;;;;;;;9.18;3.98;;;;;;;2.09;91.72;98313.69;1721013;82;21087;-63
2021/12/17 14:29:10;;;;;;;10.70;4.35;;;;;;;2.08;91.83;98316.84;1741180;82;20905;-59
2021/12/17 14:31:38;;;;;;;12.88;4.97;;;;;;;2.10;91.85;98321.89;1740708;82;20995;-64
2021/12/17 14:34:07;;;;;;;13.08;5.12;;;;;;;2.08;91.83;98316.03;1741023;82;20857;-63
2021/12/17 14:36:39;;;;;;;14.75;6.15;;;;;;;2.05;91.84;98325.22;1711988;82;20867;-65
2021/12/17 14:39:20;;;;;;;15.75;6.05;;;;;;;1.99;91.91;98329.29;1710914;82;21542;-61
2021/12/17 14:42:01;;;;;;;14.98;5.25;;;;;;;1.96;92.04;98338.47;1735262;82;20956;-62
2021/12/17 14:44:49;;;;;;;8.00;3.47;;;;;;;1.94;92.23;98333.94;1739023;82;20944;-64
2021/12/17 14:47:13;;;;;;;8.58;2.85;;;;;;;1.96;92.32;98331.05;1724695;82;21119;-65
2021/12/17 15:06:01;;;;;;;8.28;4.80;;;;;;;1.79;92.52;98336.72;1741586;82;20956;-60
2021/12/17 15:08:28;;;;;;;10.38;4.40;;;;;;;1.81;92.57;98335.98;1740910;82;21011;-62